Terminal Aerodrome Forecast
Issued by NWS

Home | Current Version | Previous Version | Text Only | Print | Product List | Glossary On
Versions: 1 2 3 4 5 6 7 8 9 10 11 12 13 14 15 16 17 18 19 20 21 22 23 24 25 26 27 28 29
915
FTUS41 KBOX 011120
TAFHYA
TAF
KHYA 011120Z 0112/0212 12004KT P6SM OVC250
     FM011700 14008KT P6SM VCSH OVC070
     FM012100 14006KT P6SM -RA OVC050
     FM020200 10006KT P6SM -RA OVC015
     FM020600 08007KT 2SM BR OVC007
     FM020900 05006KT 2SM BR OVC003=

USA.gov is the U.S. government's official web portal to all federal, state and local government web resources and services.